Time;durP1;ratioP1;P1;durP2;ratioP2;P2;SDS_P1;SDS_P2;PMS_P1;PMS_P2;Temp;Humidity;BMP_temperature;BMP_pressure;BME280_temperature;BME280_humidity;BME280_pressure;Samples;Min_cycle;Max_cycle;Signal;HPM_P1;HPM_P2
2021/03/16 00:01:31;;;;;;;0.73;0.73;;;5.60;96.10;;;8.29;84.74;102043.94;4971239;28;96705;-70
2021/03/16 00:04:06;;;;;;;1.55;1.45;;;5.50;96.10;;;8.31;84.96;102047.16;4967831;28;97952;-70
2021/03/16 00:06:46;;;;;;;0.10;0.10;;;5.50;96.10;;;8.34;85.07;102038.66;4969727;28;96807;-70
2021/03/16 00:09:14;;;;;;;0.98;0.55;;;5.50;96.10;;;8.33;84.83;102044.25;4967667;28;96815;-70
2021/03/16 00:11:42;;;;;;;0.10;0.10;;;5.50;96.10;;;8.32;84.79;102048.78;4970957;28;97316;-70
2021/03/16 00:14:10;;;;;;;0.60;0.60;;;5.50;96.10;;;8.32;84.98;102054.13;4966981;28;97013;-70
2021/03/16 00:16:37;;;;;;;0.10;0.10;;;5.50;96.10;;;8.30;84.75;102058.91;4968733;28;97758;-69
2021/03/16 00:19:05;;;;;;;0.10;0.10;;;5.50;96.10;;;8.26;84.80;102049.78;4968269;28;96692;-69
2021/03/16 00:21:33;;;;;;;0.20;0.20;;;5.50;96.10;;;8.27;84.74;102055.97;4969564;28;97440;-69
2021/03/16 00:24:03;;;;;;;0.28;0.28;;;5.50;96.10;;;8.32;84.70;102064.00;4969007;28;96853;-70
2021/03/16 00:26:32;;;;;;;0.10;0.10;;;5.40;96.10;;;8.30;85.02;102058.91;4967620;28;98757;-69
2021/03/16 00:29:02;;;;;;;0.45;0.45;;;5.50;96.10;;;8.32;84.77;102064.00;4970257;28;97294;-70
2021/03/16 00:31:32;;;;;;;3.20;0.43;;;5.40;96.10;;;8.31;85.10;102065.84;4968329;28;96872;-70
2021/03/16 00:33:59;;;;;;;1.23;0.90;;;5.50;96.20;;;8.32;84.55;102062.13;4970184;28;99181;-70
2021/03/16 00:36:33;;;;;;;0.10;0.10;;;5.50;96.20;;;8.33;84.89;102068.28;4968619;28;96836;-69
2021/03/16 00:39:03;;;;;;;0.10;0.10;;;5.50;96.20;;;8.35;84.98;102069.63;4968986;28;96866;-70
2021/03/16 00:41:34;;;;;;;0.10;0.10;;;5.50;96.20;;;8.37;85.07;102078.19;4968783;28;96694;-69
2021/03/16 00:44:07;;;;;;;0.32;0.32;;;5.50;96.20;;;8.35;85.09;102079.50;4973853;28;97923;-70
2021/03/16 00:46:35;;;;;;;0.10;0.10;;;5.50;96.20;;;8.33;84.95;102079.75;4955444;28;97863;-69
2021/03/16 00:49:05;;;;;;;0.10;0.10;;;5.50;96.20;;;8.32;85.19;102080.81;4973489;28;97223;-69
2021/03/16 00:51:33;;;;;;;0.10;0.10;;;5.50;96.50;;;8.34;85.04;102084.03;4972865;28;97545;-69
2021/03/16 00:54:03;;;;;;;3.22;0.95;;;5.50;96.20;;;8.33;84.76;102087.75;4986504;28;97900;-70
2021/03/16 00:56:32;;;;;;;0.20;0.20;;;5.50;96.20;;;8.32;84.73;102086.16;4973013;28;97526;-69
2021/03/16 00:59:00;;;;;;;2.30;1.52;;;5.50;96.20;;;8.32;85.05;102088.81;4973756;28;97198;-70
2021/03/16 01:01:32;;;;;;;0.10;0.10;;;5.50;96.20;;;8.34;85.29;102084.03;4973406;28;96995;-70
2021/03/16 01:04:00;;;;;;;0.45;0.45;;;5.50;96.20;;;8.36;84.90;102081.91;4971541;28;98118;-70
2021/03/16 01:06:31;;;;;;;1.85;1.00;;;5.50;96.20;;;8.35;85.20;102090.19;4972677;28;97662;-70
2021/03/16 01:08:58;;;;;;;0.20;0.20;;;5.50;96.20;;;8.33;85.35;102085.09;4972209;28;96856;-69
2021/03/16 01:11:26;;;;;;;0.20;0.20;;;5.50;96.20;;;8.35;85.47;102091.00;4973965;28;96861;-70
2021/03/16 01:13:54;;;;;;;0.10;0.10;;;5.50;96.20;;;8.36;85.29;102097.16;4969862;28;97878;-70
2021/03/16 01:16:22;;;;;;;0.20;0.20;;;5.50;96.20;;;8.29;85.77;102093.88;4971212;28;97766;-70
2021/03/16 01:18:50;;;;;;;0.10;0.10;;;5.50;96.20;;;8.28;85.29;102090.41;4972277;28;96912;-70
2021/03/16 01:21:17;;;;;;;0.10;0.10;;;5.50;96.20;;;8.30;85.55;102095.50;4973710;28;96774;-70
2021/03/16 01:23:45;;;;;;;0.10;0.10;;;5.60;96.30;;;8.31;85.86;102097.09;4970954;28;98198;-69
2021/03/16 01:26:13;;;;;;;0.10;0.10;;;5.60;96.30;;;8.35;85.51;102098.22;4970370;28;97172;-69
2021/03/16 01:28:41;;;;;;;0.10;0.10;;;5.60;96.30;;;8.37;85.54;102101.44;4972487;28;97433;-70
2021/03/16 01:31:09;;;;;;;0.10;0.10;;;5.60;96.20;;;8.39;85.55;102107.31;4970348;28;96877;-69
2021/03/16 01:33:37;;;;;;;0.13;0.13;;;5.60;96.30;;;8.41;85.78;102100.69;4972272;28;97881;-69
2021/03/16 01:36:06;;;;;;;0.10;0.10;;;5.60;96.20;;;8.45;85.54;102108.97;4971612;28;97693;-70
2021/03/16 01:38:34;;;;;;;0.52;0.52;;;5.60;96.30;;;8.49;85.53;102118.06;4972325;28;97206;-69
2021/03/16 01:41:04;;;;;;;0.20;0.20;;;5.60;96.20;;;8.50;85.43;102115.16;4971298;28;96775;-69
2021/03/16 01:43:33;;;;;;;6.90;0.63;;;5.60;96.20;;;8.49;85.19;102115.41;4972482;28;98043;-69
2021/03/16 01:46:04;;;;;;;0.10;0.10;;;5.60;96.20;;;8.51;85.81;102110.63;4972307;28;96863;-70
2021/03/16 01:48:36;;;;;;;0.20;0.20;;;5.70;96.30;;;8.53;85.55;102120.00;4972008;28;96742;-70
2021/03/16 01:51:11;;;;;;;0.10;0.10;;;5.70;96.30;;;8.54;85.50;102118.94;4972990;28;96881;-69
2021/03/16 01:53:41;;;;;;;0.20;0.20;;;5.70;96.30;;;8.55;85.67;102115.22;4967021;28;96871;-70
2021/03/16 01:56:27;;;;;;;0.20;0.20;;;5.70;96.30;;;8.54;85.08;102120.78;4971957;28;96728;-69
2021/03/16 01:59:17;;;;;;;0.10;0.10;;;5.70;96.20;;;8.52;85.80;102121.06;4972377;28;97920;-70
2021/03/16 02:02:05;;;;;;;1.38;0.85;;;5.70;96.20;;;8.54;86.03;102124.28;4971608;28;96760;-70
2021/03/16 02:04:53;;;;;;;0.15;0.15;;;5.70;96.20;;;8.55;85.24;102120.56;4972851;28;99116;-69
2021/03/16 02:07:52;;;;;;;12.82;3.30;;;5.70;96.20;;;8.55;85.53;102123.22;4969868;28;96719;-69
2021/03/16 02:10:51;;;;;;;0.10;0.10;;;5.70;96.20;;;8.59;85.49;102126.19;4968327;28;96726;-69
2021/03/16 02:13:47;;;;;;;0.10;0.10;;;5.80;96.20;;;8.56;85.55;102130.16;4972057;28;97018;-71
2021/03/16 02:16:40;;;;;;;0.10;0.10;;;5.80;96.20;;;8.43;85.55;102132.47;4970370;28;97821;-69
2021/03/16 02:20:07;;;;;;;0.15;0.15;;;5.80;96.20;;;8.39;85.88;102140.16;4970359;28;96788;-69
2021/03/16 02:22:56;;;;;;;0.10;0.10;;;5.70;96.20;;;8.34;85.62;102129.44;4970996;28;97389;-69
2021/03/16 02:26:03;;;;;;;0.10;0.10;;;5.70;96.20;;;8.37;85.43;102138.81;4969507;28;96758;-69
2021/03/16 02:29:10;;;;;;;0.10;0.10;;;5.70;96.20;;;8.44;85.16;102142.91;4972480;28;97374;-69
2021/03/16 02:32:04;;;;;;;0.10;0.10;;;5.70;96.20;;;8.44;85.96;102147.41;4967582;28;98839;-69
2021/03/16 02:34:58;;;;;;;0.15;0.15;;;5.70;96.20;;;8.49;85.36;102140.28;4968767;28;97164;-69
2021/03/16 02:37:45;;;;;;;1.88;1.77;;;5.70;96.20;;;8.50;85.60;102146.41;4970663;28;96836;-69
2021/03/16 02:40:34;;;;;;;0.10;0.10;;;5.70;96.00;;;8.54;85.12;102148.31;4969273;28;97830;-69
2021/03/16 02:43:22;;;;;;;0.10;0.10;;;5.70;96.20;;;8.49;85.26;102150.94;4971947;28;97993;-69
2021/03/16 02:46:10;;;;;;;0.10;0.10;;;5.70;96.30;;;8.49;85.49;102150.13;4970941;28;96848;-69
2021/03/16 02:48:58;;;;;;;0.10;0.10;;;5.70;96.30;;;8.44;84.91;102147.41;4972522;28;97351;-69
2021/03/16 02:51:47;;;;;;;0.10;0.10;;;5.70;96.30;;;8.40;84.80;102157.00;4968782;28;97123;-69
2021/03/16 02:54:37;;;;;;;2.63;1.75;;;5.60;96.20;;;8.35;84.83;102151.63;4969228;28;97208;-69
2021/03/16 02:57:33;;;;;;;0.10;0.10;;;5.60;96.20;;;8.31;85.26;102159.31;4968516;28;96908;-69
2021/03/16 03:00:21;;;;;;;0.10;0.10;;;5.60;96.20;;;8.34;85.11;102158.00;4967810;28;97485;-69
2021/03/16 03:03:09;;;;;;;0.20;0.20;;;5.60;96.20;;;8.34;84.91;102148.13;4969493;28;99258;-69
2021/03/16 03:05:58;;;;;;;0.10;0.10;;;5.50;96.20;;;8.34;84.88;102153.47;4970297;28;97946;-69
2021/03/16 03:08:47;;;;;;;0.10;0.10;;;5.50;96.20;;;8.37;84.93;102152.97;4969000;28;97211;-69
2021/03/16 03:11:34;;;;;;;0.82;0.82;;;5.60;96.30;;;8.39;85.19;102160.72;4971542;28;96862;-69
2021/03/16 03:14:20;;;;;;;0.10;0.10;;;5.60;96.30;;;8.40;85.20;102149.78;4970685;28;97933;-69
2021/03/16 03:17:08;;;;;;;0.20;0.20;;;5.50;96.30;;;8.49;84.69;102158.97;4971112;28;97429;-69
2021/03/16 03:19:55;;;;;;;0.10;0.10;;;5.60;96.30;;;8.52;84.92;102165.66;4968241;28;96547;-69
2021/03/16 03:22:45;;;;;;;0.10;0.10;;;5.60;96.30;;;8.55;84.88;102168.63;4969630;28;97204;-69
2021/03/16 03:25:40;;;;;;;0.10;0.10;;;5.60;96.30;;;8.51;85.10;102170.19;4971101;28;96986;-69
2021/03/16 03:28:35;;;;;;;1.23;0.55;;;5.60;96.30;;;8.54;85.20;102172.38;4968078;28;96735;-69
2021/03/16 03:31:50;;;;;;;0.10;0.10;;;5.60;96.30;;;8.57;84.99;102169.19;4967551;28;97138;-71
2021/03/16 03:34:41;;;;;;;0.08;0.08;;;5.60;96.40;;;8.58;84.89;102176.13;4971172;28;97327;-70
2021/03/16 03:37:34;;;;;;;0.10;0.10;;;5.60;96.30;;;8.58;85.22;102178.81;4969747;28;97827;-70
2021/03/16 03:40:24;;;;;;;0.30;0.30;;;5.60;96.40;;;8.59;85.21;102177.75;4967505;28;97939;-70
2021/03/16 03:43:12;;;;;;;0.10;0.10;;;5.70;96.40;;;8.59;84.96;102188.44;4970424;28;96821;-70
2021/03/16 03:46:00;;;;;;;0.10;0.10;;;5.70;96.40;;;8.57;85.29;102174.53;4971661;28;96828;-70
2021/03/16 03:48:52;;;;;;;3.28;0.43;;;5.70;96.40;;;8.61;84.89;102175.63;4967292;28;98038;-70
2021/03/16 03:51:40;;;;;;;0.10;0.10;;;5.70;96.40;;;8.64;84.90;102180.47;4970766;28;99645;-70
2021/03/16 03:54:32;;;;;;;0.68;0.45;;;5.70;96.40;;;8.60;85.06;102190.03;4969655;28;96729;-70
2021/03/16 03:57:18;;;;;;;2.70;0.65;;;5.70;96.40;;;8.58;84.62;102186.81;4967822;28;97041;-69
2021/03/16 04:00:11;;;;;;;0.17;0.17;;;5.70;96.40;;;8.54;84.91;102192.91;4971075;28;98279;-70
2021/03/16 04:03:00;;;;;;;4.25;3.47;;;5.70;96.40;;;8.49;85.00;102193.69;4966237;28;97062;-70
2021/03/16 04:05:51;;;;;;;0.20;0.20;;;5.70;96.30;;;8.52;85.47;102197.69;4970352;28;96937;-70
2021/03/16 04:08:38;;;;;;;0.10;0.10;;;5.70;96.40;;;8.49;84.86;102199.03;4971502;28;96892;-69
2021/03/16 04:11:26;;;;;;;0.10;0.10;;;5.70;96.40;;;8.50;85.14;102192.63;4965801;28;96854;-70
2021/03/16 04:14:14;;;;;;;0.20;0.20;;;5.70;96.40;;;8.51;85.15;102196.91;4969738;28;96750;-69
2021/03/16 04:17:05;;;;;;;0.43;0.43;;;5.70;96.40;;;8.52;84.96;102206.53;4966530;28;96884;-69
2021/03/16 04:19:55;;;;;;;4.88;0.52;;;5.70;96.40;;;8.52;84.99;102203.88;4970688;28;96886;-70
2021/03/16 04:22:43;;;;;;;0.00;0.00;;;5.60;96.40;;;8.60;85.17;102211.41;4968806;28;97731;-70
2021/03/16 04:25:30;;;;;;;0.10;0.10;;;5.70;96.40;;;8.59;85.01;102214.34;4969223;28;96807;-69
2021/03/16 04:28:34;;;;;;;0.10;0.10;;;5.60;96.30;;;8.60;84.91;102210.63;4966849;28;96798;-69
2021/03/16 04:31:20;;;;;;;0.10;0.10;;;5.70;96.40;;;8.57;85.09;102219.16;4970776;28;97218;-70
2021/03/16 04:34:06;;;;;;;0.38;0.30;;;5.70;96.40;;;8.56;85.22;102221.00;4968329;28;97443;-69
2021/03/16 04:36:53;;;;;;;0.10;0.10;;;5.70;96.40;;;8.61;85.39;102228.25;4969054;28;97866;-70
2021/03/16 04:39:39;;;;;;;2.40;1.20;;;5.70;96.40;;;8.56;85.37;102225.56;4969126;28;96774;-70
2021/03/16 04:42:26;;;;;;;0.10;0.10;;;5.70;96.40;;;8.61;85.14;102223.72;4971795;28;96789;-70
2021/03/16 04:45:15;;;;;;;0.10;0.10;;;5.70;96.40;;;8.68;85.03;102221.63;4969286;28;96833;-70
2021/03/16 04:48:04;;;;;;;0.10;0.10;;;5.70;96.40;;;8.56;85.18;102223.66;4967855;28;97826;-70
2021/03/16 04:50:51;;;;;;;12.30;1.08;;;5.70;96.40;;;8.52;85.26;102224.41;4969769;28;96762;-69
2021/03/16 04:53:37;;;;;;;0.10;0.10;;;5.70;96.40;;;8.54;85.12;102220.44;4971057;28;97238;-70
2021/03/16 04:56:24;;;;;;;0.90;0.63;;;5.70;96.40;;;8.56;85.11;102226.34;4967778;28;98352;-70
2021/03/16 04:59:11;;;;;;;0.10;0.10;;;5.70;96.40;;;8.55;85.17;102230.06;4970479;28;96685;-69
2021/03/16 05:01:58;;;;;;;0.10;0.10;;;5.70;96.40;;;8.52;85.31;102230.56;4965993;28;97012;-70
2021/03/16 05:04:45;;;;;;;0.10;0.10;;;5.70;96.40;;;8.51;85.02;102234.31;4969875;28;97047;-70
2021/03/16 05:07:31;;;;;;;0.20;0.20;;;5.70;96.40;;;8.50;85.19;102237.22;4968429;28;96827;-70
2021/03/16 05:10:17;;;;;;;0.10;0.10;;;5.70;96.40;;;8.50;85.49;102237.22;4968356;28;98289;-70
2021/03/16 05:13:04;;;;;;;1.45;0.28;;;5.70;96.40;;;8.49;84.96;102236.41;4967553;28;96664;-70
2021/03/16 05:15:50;;;;;;;1.08;1.00;;;5.60;96.40;;;8.48;85.07;102240.16;4966140;28;96926;-70
2021/03/16 05:18:38;;;;;;;0.10;0.10;;;5.60;96.40;;;8.49;84.87;102246.28;4969223;28;98051;-70
2021/03/16 05:21:24;;;;;;;0.10;0.10;;;5.60;96.40;;;8.49;85.17;102239.09;4968293;28;97897;-70
2021/03/16 05:24:11;;;;;;;0.00;0.00;;;5.60;96.40;;;8.49;85.33;102251.63;4969451;28;97309;-70
2021/03/16 05:26:58;;;;;;;0.10;0.10;;;5.60;96.40;;;8.50;85.33;102253.25;4969576;28;97414;-70
2021/03/16 05:29:44;;;;;;;0.10;0.10;;;5.60;96.40;;;8.47;84.79;102249.22;4969386;28;98467;-70
2021/03/16 05:32:34;;;;;;;0.10;0.10;;;5.60;96.40;;;8.34;84.47;102254.94;4973251;28;97869;-70
2021/03/16 05:35:22;;;;;;;0.20;0.20;;;5.60;96.30;;;8.16;85.04;102260.56;4972246;28;97149;-70
2021/03/16 05:38:08;;;;;;;0.10;0.10;;;5.50;96.30;;;8.10;84.85;102266.88;4970195;28;96955;-70
2021/03/16 05:40:55;;;;;;;0.10;0.10;;;5.50;96.20;;;8.12;85.44;102261.31;4972309;28;98181;-70
2021/03/16 05:43:42;;;;;;;0.10;0.10;;;5.50;96.30;;;8.13;85.16;102261.06;4972216;28;98417;-71
2021/03/16 05:46:32;;;;;;;1.10;0.75;;;5.50;96.30;;;8.21;85.06;102263.34;4969702;28;96797;-71
2021/03/16 05:49:20;;;;;;;0.40;0.40;;;5.50;96.30;;;8.20;85.61;102268.91;4972736;28;96906;-71
2021/03/16 05:52:11;;;;;;;0.30;0.30;;;5.50;96.30;;;8.22;85.14;102275.63;4970639;28;97500;-70
2021/03/16 05:54:59;;;;;;;0.10;0.10;;;5.40;96.30;;;8.25;85.21;102280.47;4972436;28;97927;-70
2021/03/16 05:57:51;;;;;;;0.10;0.10;;;5.50;96.30;;;8.25;85.55;102279.66;4973036;28;97065;-70
2021/03/16 06:00:37;;;;;;;0.10;0.10;;;5.50;96.30;;;8.32;85.01;102283.75;4972440;28;96784;-71
2021/03/16 06:03:23;;;;;;;0.10;0.10;;;5.50;96.30;;;8.34;85.27;102291.53;4968505;28;97271;-69
2021/03/16 06:06:11;;;;;;;0.10;0.10;;;5.50;96.30;;;8.39;85.06;102297.72;4971706;28;96756;-69
2021/03/16 06:08:58;;;;;;;0.17;0.17;;;5.50;96.30;;;8.44;85.06;102291.63;4969681;28;97292;-69
2021/03/16 06:11:49;;;;;;;0.10;0.10;;;5.60;96.30;;;8.56;84.79;102297.66;4969722;28;96769;-69
2021/03/16 06:14:37;;;;;;;0.10;0.10;;;5.60;96.40;;;8.65;84.65;102301.50;4971563;28;97992;-69
2021/03/16 06:17:23;;;;;;;0.10;0.10;;;5.60;96.30;;;8.82;84.52;102305.69;4967523;28;97904;-69
2021/03/16 06:20:13;;;;;;;0.10;0.10;;;5.70;96.30;;;9.05;84.18;102305.41;4972320;28;96908;-69
2021/03/16 06:23:17;;;;;;;6.18;1.17;;;5.90;96.30;;;9.27;83.71;102298.09;4969265;28;97176;-69
2021/03/16 06:26:13;;;;;;;0.10;0.10;;;6.00;96.20;;;9.27;83.80;102309.63;4969622;28;97335;-69
2021/03/16 06:29:07;;;;;;;0.10;0.10;;;6.10;96.10;;;9.19;83.97;102305.81;4968997;28;96732;-69
2021/03/16 06:31:54;;;;;;;0.10;0.10;;;6.10;96.00;;;9.15;84.32;102316.19;4969279;28;96733;-69
2021/03/16 06:34:40;;;;;;;0.17;0.17;;;6.20;96.00;;;9.02;84.92;102316.59;4969572;28;96863;-69
2021/03/16 06:37:34;;;;;;;1.75;1.08;;;6.20;96.00;;;8.94;84.93;102311.69;4969491;28;97865;-69
2021/03/16 06:40:28;;;;;;;0.47;0.35;;;6.20;96.00;;;8.88;85.31;102315.38;4970787;28;98858;-69
2021/03/16 06:43:16;;;;;;;0.10;0.10;;;6.10;96.00;;;8.85;85.21;102312.38;4972250;28;96980;-69
2021/03/16 06:46:05;;;;;;;0.10;0.10;;;6.10;96.00;;;8.86;85.12;102320.16;4972186;28;96896;-69
2021/03/16 06:48:51;;;;;;;0.10;0.10;;;6.10;96.10;;;8.92;85.19;102327.19;4970495;28;97793;-69
2021/03/16 06:51:38;;;;;;;0.50;0.50;;;6.10;96.10;;;9.11;85.03;102323.09;4968450;28;96701;-69
2021/03/16 06:54:26;;;;;;;2.08;1.58;;;6.20;96.10;;;9.25;84.85;102331.53;4971343;28;97738;-69
2021/03/16 06:57:24;;;;;;;0.10;0.10;;;6.30;96.10;;;9.50;84.29;102332.53;4971218;28;96936;-69
2021/03/16 07:00:32;;;;;;;0.10;0.10;;;6.40;96.10;;;9.43;84.44;102326.59;4970476;28;98010;-69
2021/03/16 07:03:18;;;;;;;2.20;0.75;;;6.50;96.00;;;9.39;84.68;102331.63;4967991;28;97749;-69
2021/03/16 07:06:13;;;;;;;0.73;0.73;;;6.50;96.00;;;9.42;84.85;102333.00;4971400;28;96746;-69
2021/03/16 07:09:02;;;;;;;0.10;0.10;;;6.50;96.00;;;9.36;85.03;102329.47;4968516;28;96774;-69
2021/03/16 07:11:52;;;;;;;0.10;0.10;;;6.60;96.00;;;9.44;85.21;102317.50;4966258;28;98545;-69
2021/03/16 07:14:40;;;;;;;0.90;0.47;;;6.60;95.90;;;9.57;84.53;102325.91;4967901;28;98792;-69
2021/03/16 07:17:33;;;;;;;0.20;0.20;;;6.70;95.90;;;9.73;84.21;102329.50;4968504;28;96988;-70
2021/03/16 07:20:22;;;;;;;0.10;0.10;;;6.80;95.90;;;9.70;84.39;102328.13;4968605;28;96949;-69
2021/03/16 07:23:12;;;;;;;0.70;0.47;;;6.80;95.80;;;9.98;84.14;102332.34;4965496;28;97974;-69
2021/03/16 07:25:59;;;;;;;0.00;0.00;;;6.90;95.80;;;10.10;83.36;102336.47;4968022;28;98595;-69
2021/03/16 07:28:48;;;;;;;0.10;0.10;;;7.00;95.70;;;10.03;83.87;102340.44;4960201;28;96875;-69
2021/03/16 07:31:36;;;;;;;1.85;0.57;;;7.10;95.60;;;9.94;83.94;102336.63;4966491;28;97424;-69
2021/03/16 07:34:26;;;;;;;0.00;0.00;;;7.10;95.60;;;9.95;84.32;102331.00;4966420;28;97566;-70
2021/03/16 07:37:13;;;;;;;0.00;0.00;;;7.10;95.60;;;10.32;83.36;102339.00;4969859;28;98070;-69
2021/03/16 07:40:07;;;;;;;1.95;1.85;;;7.20;95.60;;;11.39;81.20;102346.00;4967663;28;96691;-69
2021/03/16 07:42:55;;;;;;;0.10;0.10;;;7.50;95.50;;;12.35;77.41;102351.00;4967276;28;96880;-70
2021/03/16 07:45:41;;;;;;;0.03;0.03;;;8.00;95.20;;;12.62;76.28;102346.84;4969704;28;97903;-70
2021/03/16 07:48:31;;;;;;;0.88;0.60;;;8.30;94.60;;;11.64;79.82;102352.19;4967944;28;97115;-70
2021/03/16 07:51:21;;;;;;;0.05;0.05;;;8.40;94.30;;;11.18;81.54;102353.22;4969818;28;97358;-70
2021/03/16 07:54:10;;;;;;;0.10;0.10;;;8.30;94.40;;;11.17;82.50;102358.84;4966236;28;97623;-70
2021/03/16 07:57:03;;;;;;;0.00;0.00;;;8.30;94.50;;;12.38;79.78;102363.06;4969569;28;97406;-69
2021/03/16 07:59:59;;;;;;;0.10;0.10;;;8.50;94.60;;;14.19;73.13;102359.72;4968991;28;97027;-69
2021/03/16 08:02:45;;;;;;;5.57;0.63;;;8.90;94.20;;;13.06;76.37;102360.38;4970155;28;97215;-69
2021/03/16 08:05:41;;;;;;;0.00;0.00;;;9.20;93.80;;;12.60;78.22;102356.25;4968465;28;96753;-69
2021/03/16 08:08:42;;;;;;;0.57;0.57;;;9.20;93.70;;;12.29;80.25;102354.75;4969676;28;96898;-69
2021/03/16 08:11:40;;;;;;;0.00;0.00;;;9.20;93.80;;;12.21;80.32;102354.53;4966754;28;98978;-69
2021/03/16 08:14:33;;;;;;;0.25;0.25;;;9.20;93.90;;;12.51;79.32;102361.44;4969774;28;96794;-69
2021/03/16 08:17:30;;;;;;;0.22;0.17;;;9.30;93.90;;;12.38;79.82;102358.53;4967700;28;97077;-69
2021/03/16 08:20:26;;;;;;;0.52;0.52;;;9.20;93.80;;;12.12;80.99;102366.91;4968814;28;97909;-70
2021/03/16 08:23:14;;;;;;;0.20;0.20;;;9.20;93.90;;;11.85;81.37;102369.91;4969723;28;98076;-69
2021/03/16 08:26:05;;;;;;;0.43;0.43;;;9.10;94.00;;;11.81;82.14;102366.16;4969469;28;97925;-69
2021/03/16 08:28:51;;;;;;;0.22;0.22;;;9.00;94.10;;;12.03;81.58;102371.22;4970622;28;96775;-69
2021/03/16 08:31:44;;;;;;;2.13;0.30;;;9.00;94.20;;;12.23;80.59;102371.97;4969163;28;97105;-69
2021/03/16 08:34:33;;;;;;;0.08;0.08;;;9.10;94.10;;;12.73;79.27;102371.81;4968049;28;96904;-69
2021/03/16 08:37:26;;;;;;;0.10;0.10;;;9.30;94.10;;;13.30;77.44;102367.47;4970722;28;96653;-69
2021/03/16 08:40:23;;;;;;;0.00;0.00;;;9.50;93.90;;;13.74;76.41;102367.41;4970766;28;97207;-69
2021/03/16 08:43:11;;;;;;;4.45;1.77;;;9.80;93.80;;;13.61;76.73;102370.75;4969476;28;98052;-69
2021/03/16 08:45:57;;;;;;;0.50;0.50;;;9.90;93.50;;;13.33;78.09;102364.22;4966994;28;97991;-69
2021/03/16 08:48:46;;;;;;;0.63;0.52;;;10.00;93.40;;;13.09;78.84;102379.47;4970498;28;96728;-69
2021/03/16 08:51:33;;;;;;;0.10;0.10;;;10.00;93.30;;;13.15;79.27;102372.97;4968640;28;97126;-69
2021/03/16 08:54:25;;;;;;;0.52;0.52;;;10.00;93.30;;;13.54;78.60;102378.34;4967974;28;98034;-69
2021/03/16 08:57:17;;;;;;;2.30;0.85;;;10.10;93.20;;;13.72;77.43;102383.88;4965615;28;99192;-70
2021/03/16 09:00:08;;;;;;;2.10;1.60;;;10.20;93.10;;;13.38;78.63;102384.94;4965503;28;97089;-70
2021/03/16 09:02:55;;;;;;;0.00;0.00;;;10.20;93.10;;;13.56;78.46;102381.56;4966747;28;97610;-69
2021/03/16 09:05:42;;;;;;;0.00;0.00;;;10.20;93.20;;;14.04;76.82;102376.03;4964531;28;98907;-70
2021/03/16 09:08:30;;;;;;;0.22;0.22;;;10.40;93.10;;;13.88;77.57;102381.84;4967612;28;98717;-69
2021/03/16 09:11:30;;;;;;;0.00;0.00;;;10.50;92.90;;;13.96;77.27;102382.03;4971482;28;97004;-70
2021/03/16 09:14:19;;;;;;;0.63;0.50;;;10.60;92.80;;;13.77;78.26;102386.50;4969391;28;97035;-70
2021/03/16 09:17:07;;;;;;;0.00;0.00;;;10.60;92.70;;;13.84;78.06;102389.66;4983710;28;97951;-70
2021/03/16 09:19:54;;;;;;;0.00;0.00;;;10.60;92.70;;;14.83;74.75;102395.91;4971058;28;97725;-70
2021/03/16 09:22:41;;;;;;;0.00;0.00;;;10.70;92.70;;;14.87;74.59;102391.53;4969687;28;96826;-70
2021/03/16 09:25:35;;;;;;;0.10;0.10;;;10.80;92.70;;;17.74;66.57;102388.28;4969342;28;97285;-70
2021/03/16 09:28:22;;;;;;;0.00;0.00;;;11.20;93.00;;;19.88;61.26;102393.91;4968822;28;98885;-70
2021/03/16 09:31:09;;;;;;;0.00;0.00;;;;;;;20.55;61.10;102381.97;4969705;28;98869;-71
2021/03/16 09:33:59;;;;;;;0.00;0.00;;;13.30;91.60;;;20.05;63.38;102389.25;4969883;28;97460;-71
2021/03/16 09:37:02;;;;;;;0.00;0.00;;;14.10;90.70;;;19.13;67.48;102388.97;4969426;28;96965;-71
2021/03/16 09:39:32;;;;;;;0.00;0.00;;;14.60;90.10;;;19.18;68.17;102383.41;4970892;28;98881;-70
2021/03/16 09:42:11;;;;;;;0.80;0.80;;;14.70;89.80;;;19.40;67.70;102380.53;4969774;28;98324;-71
2021/03/16 09:44:44;;;;;;;0.10;0.10;;;15.00;89.60;;;19.32;68.00;102388.69;4967283;28;96847;-71
2021/03/16 09:47:26;;;;;;;13.15;0.43;;;15.20;88.80;;;19.01;68.84;102382.56;4953480;28;97015;-71
2021/03/16 09:50:09;;;;;;;0.08;0.08;;;15.20;88.50;;;18.67;70.65;102385.22;4965384;28;98348;-70
2021/03/16 09:52:41;;;;;;;0.00;0.00;;;15.20;88.70;;;18.18;71.42;102371.91;4965442;28;98063;-70
2021/03/16 09:55:11;;;;;;;0.30;0.30;;;15.10;88.50;;;17.60;73.21;102382.09;4968885;28;96833;-70
2021/03/16 09:57:39;;;;;;;0.08;0.08;;;14.80;88.90;;;17.15;74.77;102376.91;4972577;28;96852;-70
2021/03/16 10:00:11;;;;;;;0.00;0.00;;;14.50;89.90;;;17.19;74.88;102377.13;4973547;28;97891;-70
2021/03/16 10:02:44;;;;;;;0.10;0.10;;;14.30;90.20;;;18.11;72.03;102371.56;4976102;28;96966;-70
2021/03/16 10:05:17;;;;;;;0.70;0.55;;;14.40;90.40;;;18.98;70.71;102386.69;4971799;28;96846;-71
2021/03/16 10:07:52;;;;;;;0.55;0.40;;;14.90;90.50;;;19.51;70.00;102381.00;4972382;28;97669;-70
2021/03/16 10:10:23;;;;;;;3.43;1.80;;;15.40;90.30;;;19.39;70.53;102380.84;4971711;28;97914;-70
2021/03/16 10:12:56;;;;;;;;;;;15.80;89.40;;;19.30;71.31;102380.84;4973358;28;98812;-70
2021/03/16 10:15:28;;;;;;;0.00;0.00;;;15.90;88.50;;;19.05;71.42;102365.28;4971371;28;97476;-70
2021/03/16 10:17:59;;;;;;;0.00;0.00;;;15.90;88.10;;;18.52;72.43;102365.84;4969895;28;98211;-70
2021/03/16 10:20:36;;;;;;;0.13;0.10;;;15.70;87.60;;;18.31;73.25;102371.03;4971113;28;98438;-69
2021/03/16 10:23:10;;;;;;;0.00;0.00;;;15.40;88.20;;;18.45;73.19;102365.50;4971746;28;96828;-70
2021/03/16 10:25:56;;;;;;;7.20;0.30;;;15.30;89.20;;;18.78;72.55;102374.88;4971373;28;96782;-70
2021/03/16 10:28:34;;;;;;;8.55;2.30;;;15.30;89.70;;;18.75;72.54;102373.56;4969020;28;96962;-70
2021/03/16 10:31:14;;;;;;;0.00;0.00;;;15.30;89.70;;;18.85;72.15;102365.13;4970169;28;96840;-70
2021/03/16 10:33:47;;;;;;;0.47;0.47;;;15.30;89.80;;;18.79;72.29;102362.88;4970047;28;97689;-70
2021/03/16 10:36:17;;;;;;;0.40;0.20;;;15.30;89.90;;;18.73;72.87;102369.56;4970125;28;97642;-70
2021/03/16 10:38:48;;;;;;;34.58;2.65;;;15.30;90.10;;;18.71;73.48;102367.19;4968719;28;96769;-70
2021/03/16 10:41:16;;;;;;;17.73;1.02;;;15.30;90.20;;;18.79;72.86;102366.38;4970345;28;96954;-70
2021/03/16 10:43:45;;;;;;;0.68;0.45;;;15.40;90.30;;;19.03;72.20;102367.53;4973502;28;96976;-70
2021/03/16 10:46:13;;;;;;;0.00;0.00;;;15.40;90.10;;;19.27;72.29;102367.91;4968792;28;97927;-70
2021/03/16 10:48:41;;;;;;;0.30;0.30;;;15.60;90.10;;;19.54;71.24;102358.63;4972597;28;97473;-70
2021/03/16 10:51:09;;;;;;;2.08;0.15;;;15.70;90.10;;;19.62;71.69;102357.81;4972157;28;97890;-70
2021/03/16 10:53:38;;;;;;;1.75;0.28;;;15.80;90.00;;;19.42;72.11;102355.72;4972185;28;98794;-70
2021/03/16 10:56:07;;;;;;;0.00;0.00;;;15.80;89.40;;;19.21;73.19;102357.50;4970691;28;96847;-70
2021/03/16 10:58:36;;;;;;;0.17;0.15;;;15.80;89.70;;;19.14;73.07;102359.88;4967639;28;96925;-70
2021/03/16 11:01:07;;;;;;;0.10;0.10;;;15.70;89.80;;;18.52;74.58;102347.63;4972696;28;97984;-70
2021/03/16 11:03:35;;;;;;;0.00;0.00;;;15.50;89.50;;;18.49;74.50;102350.97;4971097;28;98036;-70
2021/03/16 11:06:05;;;;;;;0.00;0.00;;;15.30;89.90;;;18.59;74.20;102347.19;4971062;28;97139;-70
2021/03/16 11:08:33;;;;;;;0.28;0.28;;;15.30;90.10;;;18.47;75.01;102347.00;4968234;28;97431;-70
2021/03/16 11:11:02;;;;;;;0.00;0.00;;;15.20;90.30;;;18.69;74.96;102349.59;4965672;28;96937;-70
2021/03/16 11:13:31;;;;;;;0.00;0.00;;;15.20;90.60;;;18.91;74.39;102352.19;4971042;28;97808;-70
2021/03/16 11:15:58;;;;;;;3.15;0.68;;;15.20;90.70;;;19.02;73.59;102357.78;4967141;28;96925;-70
2021/03/16 11:18:31;;;;;;;20.05;1.45;;;15.30;90.40;;;18.43;74.94;102357.69;4971308;28;96783;-70
2021/03/16 11:20:59;;;;;;;0.00;0.00;;;15.20;90.20;;;17.99;76.15;102351.56;4968085;28;97977;-70
2021/03/16 11:23:31;;;;;;;4.03;0.85;;;15.00;90.30;;;17.77;76.52;102349.69;4971566;28;97665;-70
2021/03/16 11:25:59;;;;;;;0.10;0.10;;;14.80;90.50;;;17.45;77.47;102347.25;4968765;28;96653;-70
2021/03/16 11:28:32;;;;;;;0.00;0.00;;;14.60;90.60;;;17.31;77.14;102349.16;4968885;28;97014;-70
2021/03/16 11:31:00;;;;;;;24.33;0.57;;;14.40;90.70;;;17.03;77.54;102351.47;4970278;28;97106;-70